createdAt,value
2022-11-24T00:02:44.035Z,2.80
2022-11-24T00:05:29.861Z,2.80
2022-11-24T00:08:15.346Z,2.80
2022-11-24T00:11:09.895Z,2.70
2022-11-24T00:13:56.096Z,2.70
2022-11-24T00:16:41.807Z,2.70
2022-11-24T00:19:29.339Z,2.90
2022-11-24T00:22:14.602Z,2.80
2022-11-24T00:25:00.130Z,2.80
2022-11-24T00:27:46.221Z,2.80
2022-11-24T00:30:33.712Z,2.90
2022-11-24T00:33:18.899Z,2.90
2022-11-24T00:36:04.513Z,2.90
2022-11-24T00:38:55.512Z,2.90
2022-11-24T00:41:42.064Z,3.00
2022-11-24T00:44:29.967Z,2.90
2022-11-24T00:47:15.610Z,2.90
2022-11-24T00:50:01.267Z,2.90
2022-11-24T00:52:51.395Z,3.00
2022-11-24T00:55:38.653Z,2.90
2022-11-24T00:58:27.127Z,3.00
2022-11-24T01:01:19.201Z,2.90
2022-11-24T01:04:07.170Z,3.00
2022-11-24T01:06:54.982Z,3.00
2022-11-24T01:09:43.291Z,3.00
2022-11-24T01:12:29.217Z,2.90
2022-11-24T01:15:14.704Z,2.90
2022-11-24T01:18:00.168Z,3.00
2022-11-24T01:20:51.421Z,3.00
2022-11-24T01:23:36.705Z,3.00
2022-11-24T01:26:26.531Z,2.90
2022-11-24T01:29:12.822Z,3.00
2022-11-24T01:31:58.189Z,2.90
2022-11-24T01:34:46.193Z,3.00
2022-11-24T01:37:32.061Z,3.00
2022-11-24T01:40:17.681Z,3.00
2022-11-24T01:43:02.998Z,3.00
2022-11-24T01:45:51.054Z,2.90
2022-11-24T01:48:46.713Z,2.80
2022-11-24T01:51:35.914Z,2.80
2022-11-24T01:54:34.734Z,2.80
2022-11-24T01:57:33.005Z,2.90
2022-11-24T02:00:21.241Z,2.90
2022-11-24T02:03:07.656Z,2.90
2022-11-24T02:06:12.123Z,2.90
2022-11-24T02:09:08.163Z,3.00
2022-11-24T02:11:55.142Z,3.00
2022-11-24T02:14:42.852Z,3.10
2022-11-24T02:17:28.509Z,3.00
2022-11-24T02:20:15.174Z,3.00
2022-11-24T02:23:26.432Z,2.90
2022-11-24T02:26:34.016Z,3.00
2022-11-24T02:29:20.909Z,3.00
2022-11-24T02:32:11.101Z,3.10
2022-11-24T02:35:05.269Z,3.00
2022-11-24T02:37:50.592Z,2.90
2022-11-24T02:40:36.904Z,2.90
2022-11-24T02:43:28.846Z,2.90
2022-11-24T02:46:14.397Z,2.90
2022-11-24T02:48:59.993Z,2.80
2022-11-24T02:51:47.416Z,2.70
2022-11-24T02:54:33.732Z,2.70
2022-11-24T02:57:20.220Z,2.70
2022-11-24T03:00:06.651Z,2.70
2022-11-24T03:02:52.336Z,2.80
2022-11-24T03:05:38.256Z,2.80
2022-11-24T03:08:23.839Z,2.80
2022-11-24T03:11:09.438Z,2.70
2022-11-24T03:13:54.904Z,2.70
2022-11-24T03:16:43.532Z,2.70
2022-11-24T03:19:28.926Z,2.80
2022-11-24T03:22:15.528Z,2.80
2022-11-24T03:25:02.247Z,2.80
2022-11-24T03:27:49.736Z,2.80
2022-11-24T03:30:34.902Z,2.90
2022-11-24T03:33:20.393Z,2.80
2022-11-24T03:36:12.815Z,2.90
2022-11-24T03:38:58.128Z,2.80
2022-11-24T03:41:43.736Z,2.90
2022-11-24T03:44:29.110Z,2.90
2022-11-24T03:47:14.581Z,2.90
2022-11-24T03:50:02.166Z,2.90
2022-11-24T03:52:47.491Z,2.90
2022-11-24T03:55:35.355Z,2.90
2022-11-24T03:58:24.290Z,2.80
2022-11-24T04:01:12.168Z,2.90
2022-11-24T04:04:00.781Z,2.90
2022-11-24T04:06:46.321Z,2.90
2022-11-24T04:09:33.757Z,2.90
2022-11-24T04:12:37.452Z,2.80
2022-11-24T04:15:25.655Z,2.70
2022-11-24T04:18:12.168Z,2.70
2022-11-24T04:20:58.094Z,2.70
2022-11-24T04:23:43.642Z,2.70
2022-11-24T04:26:31.733Z,2.70
2022-11-24T04:29:17.103Z,2.70
2022-11-24T04:32:02.303Z,2.70
2022-11-24T04:34:50.460Z,2.50
2022-11-24T04:37:38.023Z,2.60
2022-11-24T04:40:23.379Z,2.70
2022-11-24T04:43:10.656Z,2.70
2022-11-24T04:45:55.973Z,2.70
2022-11-24T04:48:42.318Z,2.60
2022-11-24T04:51:27.705Z,2.60
2022-11-24T04:54:14.273Z,2.60
2022-11-24T04:56:59.796Z,2.50
2022-11-24T04:59:47.400Z,2.50
2022-11-24T05:02:37.870Z,2.60
2022-11-24T05:05:25.192Z,2.60
2022-11-24T05:08:10.345Z,2.60
2022-11-24T05:10:56.002Z,2.70
2022-11-24T05:13:41.619Z,2.70
2022-11-24T05:16:26.933Z,2.70
2022-11-24T05:19:12.972Z,2.70
2022-11-24T05:21:58.493Z,2.90
2022-11-24T05:24:44.177Z,2.90
2022-11-24T05:27:29.984Z,2.90
2022-11-24T05:30:15.499Z,2.80
2022-11-24T05:33:08.330Z,2.80
2022-11-24T05:35:54.223Z,2.80
2022-11-24T05:38:39.392Z,2.80
2022-11-24T05:41:24.927Z,2.80
2022-11-24T05:44:12.273Z,2.80
2022-11-24T05:46:57.555Z,2.70
2022-11-24T05:49:43.229Z,2.70
2022-11-24T05:52:28.638Z,2.70
2022-11-24T05:55:16.926Z,2.60
2022-11-24T05:58:08.722Z,2.60
2022-11-24T06:00:53.997Z,2.60
2022-11-24T06:03:39.391Z,2.70
2022-11-24T06:06:25.042Z,2.70
2022-11-24T06:09:12.993Z,2.70
2022-11-24T06:11:58.490Z,2.70
2022-11-24T06:14:43.819Z,2.60
2022-11-24T06:17:32.289Z,2.70
2022-11-24T06:20:19.692Z,2.70
2022-11-24T06:23:04.879Z,2.60
2022-11-24T06:25:51.734Z,2.60
2022-11-24T06:28:37.103Z,2.50
2022-11-24T06:31:24.772Z,2.50
2022-11-24T06:34:12.029Z,2.40
2022-11-24T06:37:00.231Z,2.40
2022-11-24T06:39:45.898Z,2.40
2022-11-24T06:42:31.410Z,2.40
2022-11-24T06:45:17.043Z,2.40
2022-11-24T06:48:04.473Z,2.50
2022-11-24T06:50:52.351Z,2.60
2022-11-24T06:53:39.362Z,2.70
2022-11-24T06:56:25.331Z,2.70
2022-11-24T06:59:19.998Z,2.70
2022-11-24T07:02:07.817Z,2.80
2022-11-24T07:04:53.088Z,2.80
2022-11-24T07:07:41.215Z,2.80
2022-11-24T07:10:31.479Z,2.80
2022-11-24T07:13:17.290Z,2.90
2022-11-24T07:16:17.376Z,2.90
2022-11-24T07:19:05.633Z,3.00
2022-11-24T07:21:50.838Z,2.90
2022-11-24T07:24:38.857Z,3.00
2022-11-24T07:27:24.963Z,3.00
2022-11-24T07:30:12.207Z,3.00
2022-11-24T07:33:02.100Z,3.00
2022-11-24T07:35:48.058Z,3.10
2022-11-24T07:38:36.881Z,3.10
2022-11-24T07:41:22.210Z,3.20
2022-11-24T07:44:07.922Z,3.20
2022-11-24T07:46:53.762Z,3.20
2022-11-24T07:49:39.234Z,3.20
2022-11-24T07:52:27.109Z,3.30
2022-11-24T07:55:12.612Z,3.30
2022-11-24T07:58:03.986Z,3.40
2022-11-24T08:00:52.279Z,3.40
2022-11-24T08:03:40.892Z,3.50
2022-11-24T08:06:36.232Z,3.50
2022-11-24T08:09:27.283Z,3.60
2022-11-24T08:12:13.580Z,3.60
2022-11-24T08:14:59.377Z,3.60
2022-11-24T08:17:44.900Z,3.60
2022-11-24T08:20:32.479Z,3.60
2022-11-24T08:23:18.087Z,3.70
2022-11-24T08:26:09.366Z,3.90
2022-11-24T08:28:59.224Z,3.80
2022-11-24T08:31:44.905Z,3.90
2022-11-24T08:34:30.605Z,4.00
2022-11-24T08:37:15.804Z,4.00
2022-11-24T08:40:00.991Z,3.80
2022-11-24T08:42:48.632Z,3.80
2022-11-24T08:45:41.017Z,4.00
2022-11-24T08:48:28.270Z,4.10
2022-11-24T08:51:16.015Z,4.10
2022-11-24T08:54:03.469Z,4.20
2022-11-24T08:56:49.793Z,4.30
2022-11-24T08:59:38.364Z,4.30
2022-11-24T09:02:23.670Z,4.30
2022-11-24T09:05:28.769Z,4.30
2022-11-24T09:08:14.738Z,4.30
2022-11-24T09:11:09.291Z,4.20
2022-11-24T09:13:55.430Z,4.30
2022-11-24T09:16:41.174Z,4.30
2022-11-24T09:19:26.897Z,4.20
2022-11-24T09:22:12.575Z,4.30
2022-11-24T09:24:58.442Z,4.40
2022-11-24T09:27:44.414Z,4.50
2022-11-24T09:30:30.046Z,4.70
2022-11-24T09:33:18.189Z,4.70
2022-11-24T09:36:05.342Z,4.90
2022-11-24T09:38:51.094Z,5.00
2022-11-24T09:41:48.637Z,5.10
2022-11-24T09:44:55.820Z,5.10
2022-11-24T09:48:04.148Z,5.20
2022-11-24T09:50:52.800Z,5.30
2022-11-24T09:53:46.149Z,5.10
2022-11-24T09:56:35.605Z,5.20
2022-11-24T09:59:26.313Z,5.30
2022-11-24T10:02:13.288Z,5.40
2022-11-24T10:04:59.534Z,5.60
2022-11-24T10:08:18.690Z,5.70
2022-11-24T10:11:12.870Z,5.70
2022-11-24T10:14:21.398Z,5.70
2022-11-24T10:17:25.783Z,5.90
2022-11-24T10:20:29.598Z,6.00
2022-11-24T10:23:17.528Z,6.20
2022-11-24T10:26:15.822Z,6.10
2022-11-24T10:29:11.206Z,6.20
2022-11-24T10:32:02.629Z,6.40
2022-11-24T10:34:51.451Z,6.50
2022-11-24T10:37:43.286Z,6.70
2022-11-24T10:43:43.089Z,6.70
2022-11-24T10:46:31.536Z,6.80
2022-11-24T10:49:28.328Z,6.90
2022-11-24T10:52:16.046Z,6.90
2022-11-24T10:55:04.599Z,6.50
2022-11-24T10:57:52.278Z,6.30
2022-11-24T11:00:37.957Z,6.30
2022-11-24T11:03:29.973Z,6.40
2022-11-24T11:06:27.092Z,6.40
2022-11-24T11:09:22.596Z,6.40
2022-11-24T11:12:43.368Z,6.40
2022-11-24T11:15:30.999Z,6.40
2022-11-24T11:18:18.240Z,6.60
2022-11-24T11:21:05.266Z,6.90
2022-11-24T11:23:51.844Z,7.40
2022-11-24T11:26:38.219Z,7.70
2022-11-24T11:35:40.172Z,8.10
2022-11-24T11:38:33.404Z,8.10
2022-11-24T11:41:43.243Z,8.10
2022-11-24T11:44:40.608Z,8.10
2022-11-24T11:47:33.453Z,8.30
2022-11-24T11:50:25.747Z,8.30
2022-11-24T11:53:45.125Z,8.10
2022-11-24T11:56:37.200Z,8.10
2022-11-24T11:59:28.204Z,8.50
2022-11-24T12:02:46.094Z,8.70
2022-11-24T12:06:09.179Z,8.60
2022-11-24T12:09:19.828Z,8.70
2022-11-24T12:12:18.943Z,8.60
2022-11-24T12:15:10.816Z,8.50
2022-11-24T12:18:48.530Z,8.40
2022-11-24T12:22:04.087Z,8.20
2022-11-24T12:24:57.557Z,8.10
2022-11-24T12:28:20.622Z,8.00
2022-11-24T12:31:11.931Z,8.00
2022-11-24T12:34:38.033Z,7.80
2022-11-24T12:37:43.484Z,7.60
2022-11-24T12:40:46.706Z,7.70
2022-11-24T12:43:51.389Z,7.90
2022-11-24T12:46:59.250Z,8.10
2022-11-24T12:50:12.980Z,8.20
2022-11-24T12:53:10.858Z,8.30
2022-11-24T12:56:08.400Z,8.30
2022-11-24T12:59:05.982Z,8.30
2022-11-24T13:01:54.412Z,8.30
2022-11-24T13:04:40.205Z,8.40
2022-11-24T13:07:46.672Z,8.40
2022-11-24T13:10:55.323Z,8.50
2022-11-24T13:14:13.932Z,8.40
2022-11-24T13:20:39.095Z,8.50
2022-11-24T13:23:28.059Z,8.60
2022-11-24T13:26:27.474Z,8.60
2022-11-24T13:29:27.914Z,8.70
2022-11-24T13:32:14.425Z,8.80
2022-11-24T13:35:12.244Z,8.70
2022-11-24T13:38:00.212Z,8.60
2022-11-24T13:41:06.344Z,8.40
2022-11-24T13:44:16.080Z,8.20
2022-11-24T13:47:22.321Z,8.20
2022-11-24T13:50:14.271Z,8.00
2022-11-24T13:53:40.870Z,7.90
2022-11-24T13:56:28.129Z,7.70
2022-11-24T13:59:34.190Z,7.80
2022-11-24T14:02:23.366Z,7.80
2022-11-24T14:05:14.220Z,7.80
2022-11-24T14:08:03.068Z,7.70
2022-11-24T14:10:52.238Z,7.50
2022-11-24T14:13:37.561Z,7.40
2022-11-24T14:16:24.184Z,7.40
2022-11-24T14:19:11.079Z,7.40
2022-11-24T14:21:56.813Z,7.50
2022-11-24T14:24:45.300Z,7.40
2022-11-24T14:27:40.131Z,7.40
2022-11-24T14:30:28.500Z,7.30
2022-11-24T14:33:15.913Z,7.20
2022-11-24T14:36:01.348Z,7.20
2022-11-24T14:38:49.196Z,7.10
2022-11-24T14:41:34.846Z,7.10
2022-11-24T14:44:26.433Z,7.00
2022-11-24T14:47:25.709Z,6.90
2022-11-24T14:50:19.704Z,6.90
2022-11-24T14:53:14.575Z,6.80
2022-11-24T14:56:27.044Z,6.80
2022-11-24T14:59:26.617Z,6.70
2022-11-24T15:02:57.294Z,6.70
2022-11-24T15:05:58.452Z,6.70
2022-11-24T15:08:49.306Z,6.60
2022-11-24T15:11:35.127Z,6.50
2022-11-24T15:14:40.825Z,6.50
2022-11-24T15:17:31.109Z,6.50
2022-11-24T15:20:41.650Z,6.40
2022-11-24T15:23:29.649Z,6.40
2022-11-24T15:26:18.876Z,6.40
2022-11-24T15:29:06.470Z,6.30
2022-11-24T15:31:53.004Z,6.20
2022-11-24T15:34:38.872Z,6.20
2022-11-24T15:37:24.271Z,6.10
2022-11-24T15:40:11.292Z,6.10
2022-11-24T15:42:59.641Z,6.00
2022-11-24T15:45:51.104Z,6.00
2022-11-24T15:48:39.220Z,6.00
2022-11-24T15:51:28.462Z,6.00
2022-11-24T15:54:16.000Z,5.90
2022-11-24T15:57:02.475Z,5.90
2022-11-24T15:59:48.901Z,6.00
2022-11-24T16:02:39.655Z,5.90
2022-11-24T16:05:25.227Z,6.00
2022-11-24T16:08:15.841Z,6.00
2022-11-24T16:11:01.424Z,6.00
2022-11-24T16:13:52.020Z,5.90
2022-11-24T16:16:40.680Z,5.90
2022-11-24T16:19:26.771Z,5.90
2022-11-24T16:22:17.276Z,5.90
2022-11-24T16:25:04.265Z,5.90
2022-11-24T16:27:51.953Z,5.90
2022-11-24T16:30:40.336Z,5.80
2022-11-24T16:33:25.781Z,5.90
2022-11-24T16:36:11.383Z,5.90
2022-11-24T16:38:56.938Z,5.90
2022-11-24T16:41:42.432Z,5.90
2022-11-24T16:44:28.023Z,6.00
2022-11-24T16:47:13.692Z,5.90
2022-11-24T16:49:58.955Z,5.70
2022-11-24T16:52:46.796Z,5.40
2022-11-24T16:55:32.430Z,5.30
2022-11-24T16:58:20.158Z,5.10
2022-11-24T17:01:11.519Z,5.00
2022-11-24T17:03:57.193Z,4.90
2022-11-24T17:06:42.806Z,4.90
2022-11-24T17:09:28.688Z,4.80
2022-11-24T17:12:14.408Z,4.80
2022-11-24T17:15:24.973Z,4.80
2022-11-24T17:21:16.076Z,4.90
2022-11-24T17:24:07.026Z,4.90
2022-11-24T17:26:52.757Z,5.00
2022-11-24T17:29:37.939Z,4.90
2022-11-24T17:32:23.157Z,4.90
2022-11-24T17:35:11.922Z,5.10
2022-11-24T17:37:58.266Z,5.20
2022-11-24T17:40:52.277Z,5.20
2022-11-24T17:43:37.965Z,5.40
2022-11-24T17:46:27.783Z,5.50
2022-11-24T17:49:15.522Z,5.50
2022-11-24T17:52:00.951Z,5.50
2022-11-24T17:54:49.014Z,5.50
2022-11-24T17:57:37.243Z,5.50
2022-11-24T18:00:25.362Z,5.50
2022-11-24T18:03:10.719Z,5.50
2022-11-24T18:05:56.540Z,5.50
2022-11-24T18:08:43.849Z,5.40
2022-11-24T18:11:32.164Z,5.40
2022-11-24T18:14:18.071Z,5.40
2022-11-24T18:17:05.563Z,5.40
2022-11-24T18:19:51.361Z,5.40
2022-11-24T18:23:03.920Z,5.40
2022-11-24T18:25:43.296Z,5.50
2022-11-24T18:28:31.043Z,5.50
2022-11-24T18:31:20.729Z,5.50
2022-11-24T18:34:07.015Z,5.50
2022-11-24T18:36:53.060Z,5.50
2022-11-24T18:39:42.035Z,5.40
2022-11-24T18:42:28.332Z,5.20
2022-11-24T18:45:13.642Z,5.00
2022-11-24T18:47:59.380Z,4.80
2022-11-24T18:50:49.172Z,4.70
2022-11-24T18:53:34.702Z,4.60
2022-11-24T18:56:20.249Z,4.50
2022-11-24T18:59:05.780Z,4.50
2022-11-24T19:01:51.651Z,4.60
2022-11-24T19:04:39.983Z,4.70
2022-11-24T19:07:25.334Z,4.80
2022-11-24T19:10:15.946Z,4.80
2022-11-24T19:13:01.822Z,4.80
2022-11-24T19:15:48.521Z,4.80
2022-11-24T19:18:37.135Z,4.80
2022-11-24T19:21:22.859Z,4.70
2022-11-24T19:24:13.138Z,4.70
2022-11-24T19:27:01.857Z,4.70
2022-11-24T19:29:47.968Z,4.60
2022-11-24T19:32:33.679Z,4.60
2022-11-24T19:35:21.309Z,4.70
2022-11-24T19:38:06.683Z,4.60
2022-11-24T19:40:52.339Z,4.50
2022-11-24T19:43:38.067Z,4.30
2022-11-24T19:46:27.988Z,4.20
2022-11-24T19:49:16.478Z,4.00
2022-11-24T19:52:01.853Z,3.80
2022-11-24T19:54:47.502Z,3.70
2022-11-24T19:57:32.754Z,3.50
2022-11-24T20:00:19.134Z,3.40
2022-11-24T20:03:05.078Z,3.30
2022-11-24T20:05:58.823Z,3.20
2022-11-24T20:08:45.106Z,3.30
2022-11-24T20:11:33.053Z,3.20
2022-11-24T20:14:19.242Z,3.20
2022-11-24T20:17:06.717Z,3.10
2022-11-24T20:19:54.546Z,3.00
2022-11-24T20:22:44.522Z,2.90
2022-11-24T20:25:30.477Z,2.80
2022-11-24T20:28:18.387Z,2.70
2022-11-24T20:31:15.660Z,2.60
2022-11-24T20:34:08.623Z,2.60
2022-11-24T20:36:54.003Z,2.50
2022-11-24T20:39:42.563Z,2.50
2022-11-24T20:42:28.036Z,2.40
2022-11-24T20:45:15.965Z,2.40
2022-11-24T20:48:01.802Z,2.40
2022-11-24T20:50:51.413Z,2.30
2022-11-24T20:53:40.769Z,2.20
2022-11-24T20:56:31.975Z,2.20
2022-11-24T20:59:21.569Z,2.20
2022-11-24T21:02:09.811Z,2.20
2022-11-24T21:04:57.926Z,2.30
2022-11-24T21:07:43.513Z,2.40
2022-11-24T21:10:29.281Z,2.40
2022-11-24T21:13:14.569Z,2.50
2022-11-24T21:16:02.039Z,2.60
2022-11-24T21:18:51.020Z,2.60
2022-11-24T21:21:37.503Z,2.60
2022-11-24T21:24:25.235Z,2.60
2022-11-24T21:27:10.641Z,2.50
2022-11-24T21:29:55.876Z,2.60
2022-11-24T21:32:43.986Z,2.60
2022-11-24T21:35:29.746Z,2.70
2022-11-24T21:38:16.207Z,2.80
2022-11-24T21:41:07.220Z,2.80
2022-11-24T21:43:55.897Z,2.70
2022-11-24T21:46:46.166Z,2.80
2022-11-24T21:49:33.871Z,2.80
2022-11-24T21:52:19.469Z,2.60
2022-11-24T21:55:12.870Z,2.60
2022-11-24T21:58:02.371Z,2.60
2022-11-24T22:00:48.100Z,2.60
2022-11-24T22:03:35.952Z,2.70
2022-11-24T22:06:21.837Z,2.80
2022-11-24T22:09:07.261Z,3.00
2022-11-24T22:11:53.122Z,3.20
2022-11-24T22:14:40.467Z,3.30
2022-11-24T22:17:31.004Z,3.50
2022-11-24T22:20:18.902Z,3.60
2022-11-24T22:23:09.152Z,3.60
2022-11-24T22:25:57.534Z,3.70
2022-11-24T22:28:43.947Z,3.70
2022-11-24T22:31:31.827Z,3.80
2022-11-24T22:34:20.183Z,3.90
2022-11-24T22:37:05.742Z,4.00
2022-11-24T22:39:54.574Z,4.00
2022-11-24T22:42:39.935Z,4.00
2022-11-24T22:45:28.203Z,4.00
2022-11-24T22:48:13.977Z,4.10
2022-11-24T22:51:17.638Z,4.10
2022-11-24T22:54:04.372Z,4.10
2022-11-24T22:56:50.075Z,4.20
2022-11-24T22:59:39.860Z,4.30
2022-11-24T23:02:25.442Z,4.30
2022-11-24T23:05:18.012Z,4.40
2022-11-24T23:08:08.453Z,4.50
2022-11-24T23:10:59.394Z,4.40
2022-11-24T23:13:45.278Z,4.30
2022-11-24T23:16:32.970Z,4.40
2022-11-24T23:19:19.763Z,4.40
2022-11-24T23:22:05.189Z,4.50
2022-11-24T23:24:52.850Z,4.50
2022-11-24T23:27:41.119Z,4.50
2022-11-24T23:30:26.549Z,4.50
2022-11-24T23:33:12.300Z,4.50
2022-11-24T23:36:04.307Z,4.60
2022-11-24T23:38:49.836Z,4.60
2022-11-24T23:41:35.717Z,4.60
2022-11-24T23:44:26.983Z,4.60
2022-11-24T23:47:12.479Z,4.60
2022-11-24T23:49:58.555Z,4.70
2022-11-24T23:52:44.080Z,4.70
2022-11-24T23:55:30.022Z,4.70
2022-11-24T23:58:15.330Z,4.70
